Time;durP1;ratioP1;P1;durP2;ratioP2;P2;SDS_P1;SDS_P2;PMS_P1;PMS_P2;Temp;Humidity;BMP_temperature;BMP_pressure;BME280_temperature;BME280_humidity;BME280_pressure;Samples;Min_cycle;Max_cycle;Signal;HPM_P1;HPM_P2
2021/05/26 00:01:58;;;;;;;5.63;2.57;;;12.30;99.90;;;;;;5072340;28;20294;-72
2021/05/26 00:04:25;;;;;;;4.20;2.60;;;12.30;99.90;;;;;;5083604;28;20213;-72
2021/05/26 00:06:51;;;;;;;6.13;2.50;;;12.30;99.90;;;;;;5080390;28;20222;-71
2021/05/26 00:09:18;;;;;;;3.63;2.60;;;12.30;99.90;;;;;;5075651;28;20233;-71
2021/05/26 00:11:44;;;;;;;3.57;2.57;;;12.30;99.90;;;;;;5080193;28;20706;-72
2021/05/26 00:14:11;;;;;;;4.73;2.63;;;12.20;99.90;;;;;;5076278;28;20225;-72
2021/05/26 00:16:37;;;;;;;3.37;2.50;;;12.20;99.90;;;;;;5071365;28;20632;-73
2021/05/26 00:19:05;;;;;;;4.40;2.70;;;12.10;99.90;;;;;;5075874;28;20217;-72
2021/05/26 00:21:33;;;;;;;4.33;2.43;;;12.10;99.90;;;;;;5073143;28;20688;-73
2021/05/26 00:23:59;;;;;;;2.40;1.90;;;12.10;99.90;;;;;;5090729;28;20311;-72
2021/05/26 00:26:25;;;;;;;6.53;2.83;;;12.10;99.90;;;;;;5079940;28;20246;-73
2021/05/26 00:28:52;;;;;;;4.17;2.33;;;12.10;99.90;;;;;;5072103;28;20565;-73
2021/05/26 00:31:21;;;;;;;3.73;2.53;;;12.10;99.90;;;;;;5075276;28;20300;-71
2021/05/26 00:33:48;;;;;;;4.07;2.57;;;12.00;99.90;;;;;;5072219;28;20624;-71
2021/05/26 00:36:15;;;;;;;2.90;2.30;;;12.00;99.90;;;;;;5080490;28;20685;-72
2021/05/26 00:38:42;;;;;;;5.37;2.40;;;12.00;99.90;;;;;;5074651;28;20288;-72
2021/05/26 00:41:09;;;;;;;3.10;2.00;;;12.00;99.90;;;;;;5071229;28;20287;-71
2021/05/26 00:43:36;;;;;;;3.43;2.30;;;11.90;99.90;;;;;;5080302;28;20209;-72
2021/05/26 00:46:03;;;;;;;2.97;2.20;;;11.90;99.90;;;;;;5078780;28;20778;-72
2021/05/26 00:48:29;;;;;;;3.33;2.07;;;11.90;99.90;;;;;;5087806;28;20204;-72
2021/05/26 00:50:56;;;;;;;3.90;2.13;;;11.90;99.90;;;;;;5085802;28;20204;-71
2021/05/26 00:53:24;;;;;;;3.77;2.23;;;11.80;99.90;;;;;;5082108;28;20274;-72
2021/05/26 00:55:51;;;;;;;3.10;1.93;;;11.80;99.90;;;;;;5086844;28;20240;-72
2021/05/26 00:58:17;;;;;;;3.90;2.17;;;11.80;99.90;;;;;;5079241;28;20240;-72
2021/05/26 01:00:44;;;;;;;3.67;2.10;;;11.70;99.90;;;;;;5075643;28;20248;-73
2021/05/26 01:03:11;;;;;;;2.77;1.90;;;11.70;99.90;;;;;;5086252;28;20225;-74
2021/05/26 01:05:38;;;;;;;4.47;2.20;;;11.70;99.90;;;;;;5075873;28;20272;-74
2021/05/26 01:08:05;;;;;;;3.37;2.43;;;11.70;99.90;;;;;;5080630;28;20265;-73
2021/05/26 01:10:33;;;;;;;3.13;2.10;;;11.70;99.90;;;;;;5087621;28;20291;-73
2021/05/26 01:13:01;;;;;;;2.47;1.83;;;11.70;99.90;;;;;;5079623;28;20213;-73
2021/05/26 01:15:27;;;;;;;4.43;1.70;;;11.70;99.90;;;;;;5080940;28;20299;-72
2021/05/26 01:17:54;;;;;;;2.43;1.80;;;11.70;99.90;;;;;;5078684;28;20608;-73
2021/05/26 01:20:23;;;;;;;5.43;2.13;;;11.70;99.90;;;;;;5080612;28;20288;-73
2021/05/26 01:22:50;;;;;;;2.57;1.90;;;11.60;99.90;;;;;;5081961;28;20308;-72
2021/05/26 01:25:17;;;;;;;2.20;1.77;;;11.60;99.90;;;;;;5073640;28;20213;-73
2021/05/26 01:27:44;;;;;;;3.80;1.93;;;11.60;99.90;;;;;;5086158;28;20244;-73
2021/05/26 01:30:11;;;;;;;2.87;1.90;;;11.60;99.90;;;;;;5078217;28;20209;-72
2021/05/26 01:32:43;;;;;;;2.30;1.70;;;11.50;99.90;;;;;;5086262;28;20208;-73
2021/05/26 01:35:11;;;;;;;4.23;1.70;;;11.50;99.90;;;;;;5073820;28;20236;-73
2021/05/26 01:37:40;;;;;;;2.93;1.63;;;11.40;99.90;;;;;;5078666;28;20212;-73
2021/05/26 01:40:09;;;;;;;1.70;1.60;;;11.40;99.90;;;;;;5083584;28;20213;-72
2021/05/26 01:42:36;;;;;;;2.27;1.60;;;11.40;99.90;;;;;;5079378;28;20561;-72
2021/05/26 01:45:04;;;;;;;2.23;1.80;;;11.30;99.90;;;;;;5076813;28;20205;-72
2021/05/26 01:47:30;;;;;;;3.60;1.70;;;11.30;99.90;;;;;;5084290;28;20302;-73
2021/05/26 01:49:57;;;;;;;2.30;1.50;;;11.30;99.90;;;;;;5077921;28;20205;-72
2021/05/26 01:52:23;;;;;;;2.60;1.53;;;11.30;99.90;;;;;;5076913;28;20202;-72
2021/05/26 01:54:50;;;;;;;3.63;1.40;;;11.20;99.90;;;;;;5081161;28;20290;-73
2021/05/26 01:57:17;;;;;;;3.30;1.53;;;11.20;99.90;;;;;;5070403;28;20667;-72
2021/05/26 01:59:44;;;;;;;3.20;1.57;;;11.20;99.90;;;;;;5080459;28;20216;-73
2021/05/26 02:02:10;;;;;;;2.87;1.60;;;11.10;99.90;;;;;;5080234;28;20231;-73
2021/05/26 02:04:36;;;;;;;3.60;1.50;;;11.10;99.90;;;;;;5081334;28;20708;-72
2021/05/26 02:07:06;;;;;;;3.80;1.57;;;11.10;99.90;;;;;;5086435;28;20204;-72
2021/05/26 02:09:33;;;;;;;2.23;1.93;;;11.00;99.90;;;;;;5095196;28;20201;-72
2021/05/26 02:14:44;;;;;;;2.07;1.37;;;11.00;99.90;;;;;;5076807;28;20329;-73
2021/05/26 02:17:11;;;;;;;2.13;1.60;;;11.00;99.90;;;;;;5086513;28;20576;-73
2021/05/26 02:19:37;;;;;;;3.53;1.50;;;11.00;99.90;;;;;;5071842;28;20292;-72
2021/05/26 02:22:04;;;;;;;2.73;1.60;;;11.00;99.90;;;;;;5073992;28;20619;-73
2021/05/26 02:24:30;;;;;;;1.93;1.40;;;11.00;99.90;;;;;;5079754;28;20304;-72
2021/05/26 02:26:56;;;;;;;1.97;1.37;;;10.90;99.90;;;;;;5079385;28;20209;-72
2021/05/26 02:29:23;;;;;;;3.10;1.70;;;10.90;99.90;;;;;;5076874;28;20205;-72
2021/05/26 02:31:50;;;;;;;2.17;1.43;;;10.90;99.90;;;;;;5069426;28;20232;-73
2021/05/26 02:34:17;;;;;;;3.80;1.43;;;10.90;99.90;;;;;;5092105;28;20320;-72
2021/05/26 02:36:44;;;;;;;2.83;1.53;;;10.80;99.90;;;;;;5087545;28;20250;-73
2021/05/26 02:39:10;;;;;;;2.37;1.50;;;10.90;99.90;;;;;;5074129;28;20253;-74
2021/05/26 02:41:37;;;;;;;3.13;1.90;;;10.90;99.90;;;;;;5075056;28;20312;-73
2021/05/26 02:44:03;;;;;;;4.00;1.67;;;10.80;99.90;;;;;;5078967;28;20491;-74
2021/05/26 02:46:30;;;;;;;2.17;1.73;;;10.80;99.90;;;;;;5077971;28;20288;-72
2021/05/26 02:48:58;;;;;;;2.27;1.70;;;10.80;99.90;;;;;;5091072;28;20692;-71
2021/05/26 02:51:24;;;;;;;1.97;1.60;;;10.80;99.90;;;;;;5084149;28;20276;-72
2021/05/26 02:53:50;;;;;;;1.80;1.53;;;10.80;99.90;;;;;;5074589;28;20707;-72
2021/05/26 02:56:17;;;;;;;2.83;1.50;;;10.80;99.90;;;;;;5083717;28;20674;-71
2021/05/26 02:58:43;;;;;;;2.20;1.70;;;10.90;99.90;;;;;;5077011;28;20215;-72
2021/05/26 03:01:09;;;;;;;2.53;1.80;;;10.90;99.90;;;;;;5077095;28;20718;-73
2021/05/26 03:03:36;;;;;;;2.40;1.63;;;10.90;99.90;;;;;;5077477;28;20221;-72
2021/05/26 03:06:03;;;;;;;2.90;1.70;;;10.90;99.90;;;;;;5086291;28;20219;-73
2021/05/26 03:08:30;;;;;;;4.33;1.70;;;10.90;99.90;;;;;;5083654;28;20304;-74
2021/05/26 03:10:57;;;;;;;7.37;1.87;;;10.90;99.90;;;;;;5077888;28;20298;-72
2021/05/26 03:13:26;;;;;;;3.37;1.70;;;11.00;99.90;;;;;;5080021;28;20607;-72
2021/05/26 03:15:53;;;;;;;2.07;1.43;;;11.00;99.90;;;;;;5078887;28;20209;-71
2021/05/26 03:18:20;;;;;;;2.47;1.63;;;11.10;99.90;;;;;;5079852;28;20268;-72
2021/05/26 03:20:47;;;;;;;2.47;1.90;;;11.10;99.90;;;;;;5073675;28;20205;-72
2021/05/26 03:23:15;;;;;;;1.70;1.60;;;11.10;99.90;;;;;;5070757;28;20229;-72
2021/05/26 03:25:42;;;;;;;3.07;1.60;;;11.10;99.90;;;;;;5079041;28;20212;-71
2021/05/26 03:28:08;;;;;;;2.50;1.70;;;11.10;99.90;;;;;;5074867;28;20339;-73
2021/05/26 03:30:35;;;;;;;2.37;1.50;;;11.10;99.90;;;;;;5070422;28;20212;-72
2021/05/26 03:33:04;;;;;;;1.87;1.53;;;11.20;99.90;;;;;;5081927;28;20264;-72
2021/05/26 03:35:32;;;;;;;4.37;1.87;;;11.20;99.90;;;;;;5076224;28;20639;-73
2021/05/26 03:37:58;;;;;;;1.83;1.53;;;11.30;99.90;;;;;;5079801;28;20209;-72
2021/05/26 03:40:26;;;;;;;4.33;1.57;;;11.30;99.90;;;;;;5075955;28;20239;-72
2021/05/26 03:42:52;;;;;;;2.53;1.60;;;11.30;99.90;;;;;;5074875;28;20228;-74
2021/05/26 03:45:19;;;;;;;2.43;1.40;;;11.40;99.90;;;;;;5080145;28;20216;-73
2021/05/26 03:47:45;;;;;;;2.17;1.37;;;11.40;99.90;;;;;;5074168;28;20241;-72
2021/05/26 03:50:13;;;;;;;1.60;1.33;;;11.50;99.90;;;;;;5073313;28;20209;-73
2021/05/26 03:52:40;;;;;;;1.30;1.10;;;11.50;99.90;;;;;;5069105;28;20255;-72
2021/05/26 03:55:10;;;;;;;1.93;1.60;;;11.60;99.90;;;;;;5079361;28;20549;-73
2021/05/26 03:57:37;;;;;;;2.07;1.43;;;11.60;99.90;;;;;;5078439;28;20225;-72
2021/05/26 04:00:06;;;;;;;2.93;1.20;;;11.70;99.90;;;;;;5072866;28;20220;-73
2021/05/26 04:02:33;;;;;;;3.57;1.63;;;11.70;99.90;;;;;;5074165;28;20229;-70
2021/05/26 04:04:59;;;;;;;1.23;1.13;;;11.80;99.90;;;;;;5086999;28;20316;-73
2021/05/26 04:07:26;;;;;;;2.43;1.20;;;11.80;99.90;;;;;;5074564;28;20647;-72
2021/05/26 04:09:52;;;;;;;3.10;1.43;;;11.90;99.90;;;;;;5077655;28;20268;-72
2021/05/26 04:12:18;;;;;;;2.83;1.50;;;11.90;99.90;;;;;;5074948;28;20288;-73
2021/05/26 04:14:46;;;;;;;3.63;1.40;;;12.00;99.90;;;;;;5075411;28;20290;-72
2021/05/26 04:17:12;;;;;;;1.53;1.20;;;12.00;99.90;;;;;;5086717;28;20321;-73
2021/05/26 04:19:39;;;;;;;1.53;1.20;;;12.10;99.90;;;;;;5083704;28;20208;-72
2021/05/26 04:22:05;;;;;;;3.97;1.27;;;12.10;99.90;;;;;;5071819;28;20282;-72
2021/05/26 04:24:32;;;;;;;1.33;1.23;;;12.20;99.90;;;;;;5075936;28;20231;-72
2021/05/26 04:26:58;;;;;;;1.80;1.33;;;12.10;99.90;;;;;;5073806;28;20198;-71
2021/05/26 04:29:25;;;;;;;1.53;1.23;;;12.10;99.90;;;;;;5070969;28;20209;-72
2021/05/26 04:31:52;;;;;;;3.03;1.17;;;12.10;99.90;;;;;;5072173;28;20203;-72
2021/05/26 04:34:18;;;;;;;1.50;1.07;;;12.10;99.90;;;;;;5079086;28;20338;-72
2021/05/26 04:36:45;;;;;;;3.73;1.10;;;12.10;99.90;;;;;;5069798;28;20300;-72
2021/05/26 04:39:11;;;;;;;1.93;1.10;;;12.20;99.90;;;;;;5083030;28;20629;-72
2021/05/26 04:41:37;;;;;;;1.60;0.90;;;12.20;99.90;;;;;;5073109;28;20208;-73
2021/05/26 04:44:05;;;;;;;1.73;1.33;;;12.30;99.90;;;;;;5075438;28;20205;-74
2021/05/26 04:46:31;;;;;;;1.57;0.90;;;12.30;99.90;;;;;;5082847;28;20201;-73
2021/05/26 04:48:59;;;;;;;1.90;1.13;;;12.30;99.90;;;;;;5084344;28;20210;-72
2021/05/26 04:51:25;;;;;;;1.50;1.07;;;12.30;99.90;;;;;;5076795;28;20212;-73
2021/05/26 04:53:52;;;;;;;1.00;0.93;;;12.40;99.90;;;;;;5080844;28;20207;-72
2021/05/26 04:56:18;;;;;;;1.93;1.27;;;12.40;99.90;;;;;;5074440;28;20229;-72
2021/05/26 04:58:45;;;;;;;2.60;1.10;;;12.40;99.90;;;;;;5088340;28;20316;-73
2021/05/26 05:01:11;;;;;;;1.97;0.90;;;12.40;99.90;;;;;;5074401;28;20213;-72
2021/05/26 05:03:38;;;;;;;1.03;0.73;;;12.50;99.90;;;;;;5072580;28;20225;-72
2021/05/26 05:06:07;;;;;;;1.77;1.10;;;12.60;99.90;;;;;;5084396;28;20228;-74
2021/05/26 05:08:34;;;;;;;2.67;1.13;;;12.60;99.90;;;;;;5080124;28;20217;-73
2021/05/26 05:11:00;;;;;;;4.87;1.23;;;12.70;99.90;;;;;;5073570;28;20546;-73
2021/05/26 05:13:27;;;;;;;2.27;1.00;;;12.80;99.90;;;;;;5074170;28;20229;-73
2021/05/26 05:15:53;;;;;;;1.77;1.00;;;12.80;99.90;;;;;;5072522;28;20206;-72
2021/05/26 05:18:20;;;;;;;3.83;1.10;;;12.80;99.90;;;;;;5077928;28;20293;-72
2021/05/26 05:20:46;;;;;;;1.00;0.90;;;12.90;99.90;;;;;;5068916;28;20210;-72
2021/05/26 05:23:13;;;;;;;1.00;0.90;;;12.90;99.90;;;;;;5069564;28;20306;-72
2021/05/26 05:25:39;;;;;;;2.47;1.20;;;13.00;99.90;;;;;;5073020;28;20209;-73
2021/05/26 05:28:06;;;;;;;1.43;1.00;;;12.90;99.90;;;;;;5073986;28;20210;-73
2021/05/26 05:30:33;;;;;;;0.83;0.83;;;13.00;99.90;;;;;;5080661;28;20213;-74
2021/05/26 05:32:59;;;;;;;3.50;1.00;;;13.00;99.90;;;;;;5075926;28;20680;-74
2021/05/26 05:35:27;;;;;;;3.90;1.30;;;13.10;99.90;;;;;;5075747;28;20292;-72
2021/05/26 05:37:54;;;;;;;2.87;1.73;;;13.10;99.90;;;;;;5084205;28;20209;-73
2021/05/26 05:40:22;;;;;;;3.60;1.20;;;13.10;99.90;;;;;;5075030;28;20244;-72
2021/05/26 05:42:48;;;;;;;2.93;1.10;;;13.10;99.90;;;;;;5076269;28;20231;-71
2021/05/26 05:45:15;;;;;;;1.53;0.93;;;13.20;99.90;;;;;;5079290;28;20296;-73
2021/05/26 05:47:41;;;;;;;1.43;1.20;;;13.20;99.90;;;;;;5078691;28;20303;-73
2021/05/26 05:50:15;;;;;;;1.00;0.83;;;13.20;99.90;;;;;;5081841;28;20654;-72
2021/05/26 05:52:43;;;;;;;2.10;0.90;;;13.30;99.90;;;;;;5078293;28;20212;-73
2021/05/26 05:55:12;;;;;;;1.33;1.00;;;13.30;99.90;;;;;;5076144;28;20659;-73
2021/05/26 05:57:40;;;;;;;1.60;1.00;;;13.40;99.90;;;;;;5073324;28;20225;-73
2021/05/26 06:00:08;;;;;;;3.03;1.47;;;13.50;99.90;;;;;;5074140;28;20213;-73
2021/05/26 06:02:35;;;;;;;2.23;1.30;;;13.50;99.90;;;;;;5074159;28;20225;-73
2021/05/26 06:05:01;;;;;;;3.13;1.10;;;13.60;99.90;;;;;;5079308;28;20585;-73
2021/05/26 06:07:28;;;;;;;2.43;1.10;;;13.60;99.90;;;;;;5074143;28;20269;-73
2021/05/26 06:09:54;;;;;;;2.60;1.17;;;13.60;99.90;;;;;;5074591;28;20236;-72
2021/05/26 06:12:20;;;;;;;2.43;1.10;;;13.60;99.90;;;;;;5090213;28;20335;-72
2021/05/26 06:14:48;;;;;;;2.73;1.10;;;13.70;99.90;;;;;;5083492;28;20232;-72
2021/05/26 06:17:15;;;;;;;0.80;0.80;;;13.80;99.90;;;;;;5091758;28;20278;-71
2021/05/26 06:19:41;;;;;;;1.10;1.00;;;13.80;99.90;;;;;;5087258;28;20657;-75
2021/05/26 06:22:08;;;;;;;2.10;1.17;;;13.90;99.90;;;;;;5075461;28;20312;-72
2021/05/26 06:24:34;;;;;;;1.43;0.97;;;14.00;99.40;;;;;;5082221;28;20244;-73
2021/05/26 06:27:01;;;;;;;1.27;0.83;;;14.20;99.40;;;;;;5073348;28;20251;-73
2021/05/26 06:29:27;;;;;;;0.87;0.87;;;14.40;99.20;;;;;;5078570;28;20296;-76
2021/05/26 06:31:55;;;;;;;2.23;0.70;;;14.60;98.40;;;;;;5076050;28;20639;-72
2021/05/26 06:34:21;;;;;;;2.13;0.93;;;14.70;98.10;;;;;;5072955;28;20789;-74
2021/05/26 06:36:48;;;;;;;1.00;0.67;;;14.80;97.40;;;;;;5079655;28;20623;-73
2021/05/26 06:39:14;;;;;;;1.17;0.90;;;14.80;96.80;;;;;;5089284;28;20209;-74
2021/05/26 06:41:41;;;;;;;0.90;0.70;;;14.80;96.60;;;;;;5080639;28;20219;-72
2021/05/26 06:44:07;;;;;;;2.30;1.00;;;14.80;96.50;;;;;;5070939;28;20328;-72
2021/05/26 06:46:33;;;;;;;2.90;1.10;;;14.90;96.40;;;;;;5073404;28;20669;-72
2021/05/26 06:49:01;;;;;;;2.30;1.00;;;15.00;95.60;;;;;;5071431;28;20221;-73
2021/05/26 06:51:27;;;;;;;2.37;0.93;;;15.00;95.10;;;;;;5086327;28;20295;-71
2021/05/26 06:53:55;;;;;;;0.80;0.80;;;15.10;94.90;;;;;;5077348;28;20415;-75
2021/05/26 06:56:22;;;;;;;2.10;0.80;;;15.10;94.40;;;;;;5074420;28;20322;-73
2021/05/26 06:58:48;;;;;;;0.90;0.70;;;15.10;94.20;;;;;;5074217;28;20230;-71
2021/05/26 07:01:15;;;;;;;1.63;0.73;;;15.10;93.90;;;;;;5072801;28;20209;-72
2021/05/26 07:03:41;;;;;;;2.40;0.80;;;15.00;93.50;;;;;;5085633;28;20239;-70
2021/05/26 07:06:08;;;;;;;0.73;0.70;;;15.10;93.60;;;;;;5081602;28;20227;-72
2021/05/26 07:08:35;;;;;;;2.13;0.87;;;15.10;93.30;;;;;;5065849;28;20213;-71
2021/05/26 07:11:01;;;;;;;3.53;0.80;;;15.10;93.50;;;;;;5082522;28;20232;-74
2021/05/26 07:13:28;;;;;;;1.67;0.90;;;15.10;93.40;;;;;;5075063;28;20295;-72
2021/05/26 07:15:54;;;;;;;3.03;0.90;;;15.20;93.10;;;;;;5068597;28;20740;-71
2021/05/26 07:18:21;;;;;;;1.70;0.70;;;15.20;92.70;;;;;;5078415;28;20214;-70
2021/05/26 07:20:48;;;;;;;3.90;0.80;;;15.30;92.60;;;;;;5071701;28;20263;-70
2021/05/26 07:23:17;;;;;;;3.03;1.00;;;15.30;92.30;;;;;;5073178;28;20237;-70
2021/05/26 07:25:43;;;;;;;1.67;0.80;;;15.40;92.00;;;;;;5074507;28;20700;-72
2021/05/26 07:28:10;;;;;;;0.83;0.80;;;15.40;91.70;;;;;;5066837;28;20209;-72
2021/05/26 07:30:37;;;;;;;2.37;1.13;;;15.40;91.30;;;;;;5073496;28;20204;-74
2021/05/26 07:33:03;;;;;;;0.93;0.80;;;15.40;90.60;;;;;;5077273;28;20209;-72
2021/05/26 07:35:30;;;;;;;1.73;0.90;;;15.40;90.30;;;;;;5076443;28;20250;-74
2021/05/26 07:37:56;;;;;;;1.23;0.80;;;15.40;90.10;;;;;;5071983;28;20211;-73
2021/05/26 07:40:24;;;;;;;2.30;0.60;;;15.40;90.20;;;;;;5072392;28;20201;-75
2021/05/26 07:42:50;;;;;;;1.80;0.80;;;15.40;90.00;;;;;;5073581;28;20232;-74
2021/05/26 07:45:17;;;;;;;5.23;0.90;;;15.40;89.50;;;;;;5074416;28;20583;-73
2021/05/26 07:47:43;;;;;;;1.87;0.70;;;15.50;88.60;;;;;;5068498;28;20942;-74
2021/05/26 07:50:11;;;;;;;1.00;0.90;;;15.60;88.70;;;;;;5070914;28;20219;-76
2021/05/26 07:52:37;;;;;;;4.27;1.30;;;15.80;88.50;;;;;;5071985;28;20310;-74
2021/05/26 07:55:05;;;;;;;2.60;1.03;;;15.90;86.90;;;;;;5061006;28;20205;-74
2021/05/26 07:57:32;;;;;;;2.77;0.90;;;16.00;86.20;;;;;;5068657;28;20264;-75
2021/05/26 07:59:58;;;;;;;0.63;0.63;;;16.10;85.00;;;;;;5061047;28;20202;-76
2021/05/26 08:02:25;;;;;;;4.87;0.63;;;16.20;84.70;;;;;;5062080;28;20320;-76
2021/05/26 08:04:53;;;;;;;1.83;0.67;;;16.40;83.00;;;;;;5071763;28;20198;-75
2021/05/26 08:07:20;;;;;;;2.47;1.30;;;16.40;82.30;;;;;;5072753;28;20229;-74
2021/05/26 08:09:46;;;;;;;1.37;1.00;;;16.50;81.30;;;;;;5061047;28;20279;-73
2021/05/26 08:12:13;;;;;;;5.83;0.93;;;16.50;81.00;;;;;;5066609;28;20228;-75
2021/05/26 08:14:41;;;;;;;0.77;0.70;;;16.40;80.70;;;;;;5068663;28;20224;-75
2021/05/26 08:17:08;;;;;;;1.53;1.10;;;16.50;80.20;;;;;;5071760;28;20201;-76
2021/05/26 08:19:34;;;;;;;1.97;0.80;;;16.50;80.20;;;;;;5069460;28;20238;-74
2021/05/26 08:22:01;;;;;;;4.27;0.87;;;16.60;80.00;;;;;;5070558;28;20388;-75
2021/05/26 08:24:27;;;;;;;2.43;0.80;;;16.70;79.30;;;;;;5065222;28;20295;-74
2021/05/26 08:26:54;;;;;;;5.20;1.00;;;16.80;79.30;;;;;;5067913;28;20209;-74
2021/05/26 08:29:21;;;;;;;1.13;0.80;;;16.80;78.80;;;;;;5073212;28;20205;-74
2021/05/26 08:31:49;;;;;;;2.10;0.73;;;16.90;78.90;;;;;;5073418;28;20212;-74
2021/05/26 08:34:15;;;;;;;2.50;0.80;;;17.00;78.70;;;;;;5068427;28;20218;-74
2021/05/26 08:36:42;;;;;;;3.53;1.00;;;17.10;77.30;;;;;;5066934;28;20641;-73
2021/05/26 08:39:09;;;;;;;0.93;0.90;;;17.20;77.20;;;;;;5070747;28;20254;-75
2021/05/26 08:41:35;;;;;;;1.10;0.63;;;17.10;76.00;;;;;;5073889;28;20292;-73
2021/05/26 08:44:02;;;;;;;1.63;0.73;;;17.10;76.10;;;;;;5060527;28;20675;-75
2021/05/26 08:46:29;;;;;;;3.97;1.00;;;17.10;76.00;;;;;;5069597;28;20210;-76
2021/05/26 08:49:01;;;;;;;2.53;0.73;;;17.10;76.30;;;;;;5071180;28;20205;-69
2021/05/26 08:51:28;;;;;;;4.30;1.00;;;17.20;76.10;;;;;;5069943;28;20226;-71
2021/05/26 08:53:55;;;;;;;4.50;1.27;;;17.30;75.30;;;;;;5063659;28;20213;-73
2021/05/26 08:56:22;;;;;;;3.73;1.43;;;17.30;75.10;;;;;;5072199;28;20244;-75
2021/05/26 08:58:49;;;;;;;2.97;0.90;;;17.30;75.00;;;;;;5072915;28;20300;-73
2021/05/26 09:01:16;;;;;;;2.67;0.80;;;17.30;75.00;;;;;;5072680;28;20299;-75
2021/05/26 09:03:43;;;;;;;3.83;1.13;;;17.50;74.20;;;;;;5078950;28;20229;-71
2021/05/26 09:06:14;;;;;;;2.47;1.10;;;17.50;73.00;;;;;;5082934;28;20298;-74
2021/05/26 09:08:48;;;;;;;1.70;0.87;;;17.50;72.30;;;;;;5086419;28;20298;-74
2021/05/26 09:11:16;;;;;;;2.50;1.03;;;17.70;72.60;;;;;;5076318;28;20243;-73
2021/05/26 09:13:43;;;;;;;1.17;0.90;;;17.80;71.80;;;;;;5080168;28;20282;-72
2021/05/26 09:16:29;;;;;;;2.13;0.90;;;17.90;70.00;;;;;;5082740;28;20598;-73
2021/05/26 09:18:57;;;;;;;4.37;0.90;;;18.10;70.20;;;;;;5082988;28;20228;-73
2021/05/26 09:21:38;;;;;;;2.00;0.70;;;18.30;68.90;;;;;;5077311;28;20303;-74
2021/05/26 09:24:27;;;;;;;4.33;0.77;;;18.50;68.20;;;;;;5086126;28;20758;-73
2021/05/26 09:26:55;;;;;;;3.23;1.00;;;18.50;67.50;;;;;;5081414;28;20197;-74
2021/05/26 09:29:24;;;;;;;5.57;1.40;;;18.60;67.30;;;;;;5076877;28;20729;-73
2021/05/26 09:31:54;;;;;;;5.68;1.52;;;18.60;66.90;;;;;;5083909;28;20209;-73
2021/05/26 09:34:35;;;;;;;5.03;1.23;;;18.70;66.40;;;;;;5084830;28;20635;-73
2021/05/26 09:37:03;;;;;;;3.23;1.00;;;18.70;64.80;;;;;;5078333;28;20204;-73
2021/05/26 09:39:51;;;;;;;1.17;0.90;;;18.60;64.10;;;;;;5081903;28;20210;-73
2021/05/26 09:42:34;;;;;;;3.37;0.90;;;18.70;63.90;;;;;;5085750;28;20253;-72
2021/05/26 09:45:26;;;;;;;2.03;0.90;;;18.90;63.00;;;;;;5080903;28;20221;-74
2021/05/26 09:47:54;;;;;;;2.57;1.20;;;19.10;62.40;;;;;;5084154;28;20204;-73
2021/05/26 09:50:31;;;;;;;3.80;1.20;;;19.20;62.10;;;;;;5078576;28;20300;-72
2021/05/26 09:53:16;;;;;;;2.13;1.27;;;19.20;61.60;;;;;;5077311;28;20213;-74
2021/05/26 09:55:43;;;;;;;2.60;1.07;;;19.40;62.00;;;;;;5088297;28;20208;-73
2021/05/26 09:58:11;;;;;;;5.20;1.20;;;19.40;61.40;;;;;;5080408;28;20618;-74
2021/05/26 10:00:39;;;;;;;2.33;1.20;;;19.50;60.90;;;;;;5078876;28;20200;-74
2021/05/26 10:03:06;;;;;;;3.22;1.48;;;19.70;59.70;;;;;;5076708;28;20741;-73
2021/05/26 10:05:34;;;;;;;3.63;1.63;;;19.90;59.60;;;;;;5083989;28;20612;-73
2021/05/26 10:08:06;;;;;;;2.38;0.95;;;20.10;59.10;;;;;;5081074;28;20208;-73
2021/05/26 10:10:33;;;;;;;2.03;1.27;;;20.30;59.10;;;;;;5076345;28;20205;-74
2021/05/26 10:13:01;;;;;;;3.42;1.38;;;20.50;59.10;;;;;;5083960;28;20280;-73
2021/05/26 10:15:30;;;;;;;1.27;0.90;;;20.70;57.50;;;;;;5076955;28;20671;-75
2021/05/26 10:17:58;;;;;;;3.10;1.35;;;20.80;56.80;;;;;;5080549;28;20553;-74
2021/05/26 10:20:28;;;;;;;4.88;1.33;;;20.80;56.80;;;;;;5075053;28;20291;-74
2021/05/26 10:22:56;;;;;;;5.97;1.50;;;20.80;56.70;;;;;;5076964;28;20224;-74
2021/05/26 10:25:24;;;;;;;2.75;1.20;;;20.80;56.80;;;;;;5083206;28;20208;-75
2021/05/26 10:27:51;;;;;;;3.53;0.90;;;20.70;56.10;;;;;;5083910;28;20204;-75
2021/05/26 10:30:20;;;;;;;1.83;1.20;;;20.60;55.90;;;;;;5075836;28;21148;-75
2021/05/26 10:32:59;;;;;;;3.08;1.25;;;20.60;55.80;;;;;;5072539;28;20209;-74
2021/05/26 10:35:27;;;;;;;2.10;0.90;;;20.80;56.30;;;;;;5072259;28;20252;-74
2021/05/26 10:38:00;;;;;;;2.55;1.20;;;20.90;55.50;;;;;;5090939;28;20288;-76
2021/05/26 10:40:39;;;;;;;2.45;1.20;;;20.80;54.70;;;;;;5073422;28;20210;-75
2021/05/26 10:43:27;;;;;;;2.08;1.17;;;20.80;54.70;;;;;;5078479;28;20221;-74
2021/05/26 10:45:55;;;;;;;3.53;1.15;;;20.80;55.40;;;;;;5070190;28;20293;-73
2021/05/26 10:48:58;;;;;;;4.82;1.00;;;20.90;55.20;;;;;;5071096;28;20301;-74
2021/05/26 10:52:09;;;;;;;4.45;0.90;;;21.00;54.30;;;;;;5069733;28;20207;-76
2021/05/26 10:55:10;;;;;;;3.50;1.10;;;20.90;53.80;;;;;;5079225;28;20251;-75
2021/05/26 10:58:13;;;;;;;2.85;1.05;;;20.90;53.50;;;;;;5077831;28;20235;-71
2021/05/26 11:00:40;;;;;;;3.08;1.17;;;20.80;53.30;;;;;;5084580;28;20209;-76
2021/05/26 11:03:34;;;;;;;3.92;1.10;;;20.80;53.40;;;;;;5074762;28;20745;-73
2021/05/26 11:06:02;;;;;;;2.60;1.10;;;20.80;53.50;;;;;;5069294;28;20689;-78
2021/05/26 11:08:42;;;;;;;4.40;0.98;;;20.80;54.40;;;;;;5079350;28;20300;-74
2021/05/26 11:11:40;;;;;;;3.92;1.00;;;20.80;53.40;;;;;;5073794;28;20224;-74
2021/05/26 11:14:33;;;;;;;2.45;0.90;;;20.70;52.80;;;;;;5087566;28;20349;-78
2021/05/26 11:17:27;;;;;;;2.45;1.08;;;20.60;53.00;;;;;;5086520;28;20295;-74
2021/05/26 11:20:21;;;;;;;3.13;1.15;;;20.60;53.90;;;;;;5090356;28;20672;-78
2021/05/26 11:22:49;;;;;;;1.80;1.13;;;20.90;53.40;;;;;;5074149;28;20255;-76
2021/05/26 11:25:17;;;;;;;3.88;1.05;;;21.00;52.80;;;;;;5081248;28;20237;-76
2021/05/26 11:27:52;;;;;;;3.25;1.17;;;21.10;52.60;;;;;;5074309;28;20205;-76
2021/05/26 11:30:25;;;;;;;2.05;1.00;;;21.10;52.50;;;;;;5071163;28;20201;-76
2021/05/26 11:32:52;;;;;;;2.35;0.88;;;21.10;52.10;;;;;;5074227;28;20232;-74
2021/05/26 11:35:19;;;;;;;4.30;1.30;;;21.00;51.60;;;;;;5085533;28;20442;-76
2021/05/26 11:37:45;;;;;;;4.90;1.27;;;20.90;51.80;;;;;;5090046;28;20219;-76
2021/05/26 11:40:28;;;;;;;3.53;1.02;;;20.80;51.60;;;;;;5072755;28;20205;-75
2021/05/26 11:42:56;;;;;;;1.40;0.82;;;20.80;52.00;;;;;;5072744;28;20316;-75
2021/05/26 11:45:24;;;;;;;3.22;1.08;;;21.00;51.90;;;;;;5073325;28;20213;-73
2021/05/26 11:47:53;;;;;;;1.80;0.90;;;21.20;51.10;;;;;;5076765;28;20209;-73
2021/05/26 11:50:22;;;;;;;3.15;0.93;;;21.50;51.00;;;;;;5066083;28;20268;-72
2021/05/26 11:52:51;;;;;;;4.80;1.35;;;21.70;50.60;;;;;;5080731;28;20235;-72
2021/05/26 11:55:19;;;;;;;1.83;0.90;;;21.80;50.40;;;;;;5076616;28;20205;-71
2021/05/26 11:57:47;;;;;;;1.85;0.75;;;21.80;49.60;;;;;;5075553;28;20282;-73
2021/05/26 12:00:22;;;;;;;2.88;0.80;;;21.70;49.10;;;;;;5074936;28;20209;-73
2021/05/26 12:02:58;;;;;;;1.88;0.80;;;21.50;49.10;;;;;;5076179;28;20281;-73
2021/05/26 12:05:46;;;;;;;1.90;0.98;;;21.50;49.90;;;;;;5076668;28;20224;-73
2021/05/26 12:08:14;;;;;;;1.85;1.00;;;21.50;50.00;;;;;;5065233;28;20202;-73
2021/05/26 12:10:40;;;;;;;2.20;0.88;;;21.70;50.20;;;;;;5065943;28;20210;-73
2021/05/26 12:13:07;;;;;;;1.92;1.05;;;21.80;50.40;;;;;;5068661;28;20546;-74
2021/05/26 12:15:34;;;;;;;2.47;0.90;;;22.10;49.50;;;;;;5073334;28;20677;-76
2021/05/26 12:18:01;;;;;;;6.20;1.00;;;22.30;48.40;;;;;;5064810;28;20495;-75
2021/05/26 12:20:29;;;;;;;1.52;1.05;;;22.30;48.00;;;;;;5061155;28;20247;-75
2021/05/26 12:23:00;;;;;;;3.15;1.10;;;22.30;48.20;;;;;;5074649;28;20225;-75
2021/05/26 12:25:37;;;;;;;2.42;1.00;;;22.50;48.00;;;;;;5076077;28;20204;-73
2021/05/26 12:28:14;;;;;;;4.68;1.20;;;22.80;47.60;;;;;;5072475;28;20239;-73
2021/05/26 12:30:41;;;;;;;2.90;1.15;;;22.90;47.10;;;;;;5065056;28;20253;-74
2021/05/26 12:33:17;;;;;;;1.63;0.90;;;22.90;46.90;;;;;;5073343;28;20292;-75
2021/05/26 12:35:44;;;;;;;1.98;0.60;;;22.70;46.50;;;;;;5073796;28;20549;-74
2021/05/26 12:38:18;;;;;;;4.90;0.93;;;22.50;47.00;;;;;;5072381;28;20580;-69
2021/05/26 12:40:45;;;;;;;3.65;1.15;;;22.30;47.10;;;;;;5076557;28;20300;-72
2021/05/26 12:43:26;;;;;;;3.53;0.85;;;22.30;47.30;;;;;;5077096;28;20217;-73
2021/05/26 12:45:53;;;;;;;4.25;0.98;;;22.40;46.80;;;;;;5076217;28;20247;-73
2021/05/26 12:48:21;;;;;;;3.55;0.88;;;22.50;46.60;;;;;;5076805;28;20209;-72
2021/05/26 12:50:48;;;;;;;2.65;0.95;;;22.70;46.00;;;;;;5076049;28;20207;-73
2021/05/26 12:53:17;;;;;;;3.55;0.80;;;22.80;45.90;;;;;;5076903;28;20270;-74
2021/05/26 12:55:44;;;;;;;2.83;0.90;;;22.60;45.00;;;;;;5077031;28;21527;-71
2021/05/26 12:58:14;;;;;;;3.67;0.80;;;22.40;45.60;;;;;;5075987;28;20287;-71
2021/05/26 13:00:41;;;;;;;2.55;1.20;;;22.40;46.10;;;;;;5072632;28;20768;-71